Latest Weather Observations for PORTABLE RFSNSW14

IDN60801

Issued at 11:52 pm EDT Sunday 25 October 2020 (issued every 10 minutes, with the page automatically refreshed every 10 minutes)

About weather observations | Map of weather stations | Latest weather observations for NSW | Other Formats
Station Details ID: 250068 Name: PORTABLE RFSNSW14 Lat: -37.03 Lon: 149.63 Height: 274.0 m

Portable automatic weather stations (PAWS) are operated by other organisations, such as Fire and Emergency Services, and are included here by agreement. Portable stations may be deployed to a location for a short period and their location may be subject to change without notice. Wind observations from these stations are provided from heights of either three (3) or ten (10) metres above ground level (AGL).

Data from the previous 72 hours. | See also: Recent months for locations in New South Wales
Date/Time
EDT
Temp
°C
App
Temp
°C
Dew
Point
°C
Rel
Hum
%
Delta-T
°C
Wind Press
QNH
hPa
Press
MSL
hPa
Rain since
9am
mm
Dir  Spd
km/h
Gust
km/h
Spd
kts
Gust
kts
25/05:30pm 11.0 10.1 10.5 97 0.3 WNW 6 9 3 5 - - 4.4
25/04:30pm 14.0 13.0 10.2 78 2.0 ENE 6 7 3 4 - - 0.2
25/04:20pm 14.5 13.4 10.1 75 2.3 ENE 6 9 3 5 - - 0.2
25/04:10pm 15.1 14.4 10.2 72 2.6 E 4 6 2 3 - - 0.2
25/04:00pm 14.9 13.8 9.8 71 2.7 NE 6 6 3 3 - - 0.2
25/03:50pm 14.9 13.7 9.7 71 2.7 ENE 6 7 3 4 - - 0.2
25/03:40pm 14.8 13.3 8.6 66 3.2 NNE 6 9 3 5 - - 0.2
25/03:30pm 15.1 14.3 9.5 69 2.9 W 4 6 2 3 - - 0.2
25/03:20pm 15.1 14.1 8.9 66 3.2 N 4 6 2 3 - - 0.2
25/03:10pm 14.9 14.1 9.8 71 2.7 NE 4 6 2 3 - - 0.2
25/03:00pm 15.2 14.2 8.8 65 3.3 E 4 6 2 3 - - 0.0
25/02:40pm 14.7 14.1 8.9 68 3.0 S 2 2 1 1 - - 0.0
25/02:20pm 15.0 14.1 7.8 62 3.6 NNW 2 4 1 2 - - 0.0
25/02:10pm 14.9 13.6 7.6 61 3.7 NNE 4 7 2 4 - - 0.0
25/02:00pm 14.8 13.8 7.4 61 3.7 ENE 2 6 1 3 - - 0.0
25/01:50pm 14.4 12.7 6.1 57 4.0 ENE 4 6 2 3 - - 0.0
25/01:30pm 14.4 12.7 7.5 63 3.5 E 6 7 3 4 - - 0.0
25/01:10pm 13.9 12.4 6.6 61 3.6 E 4 6 2 3 - - 0.0
25/01:00pm 13.8 12.2 6.2 60 3.7 ESE 4 6 2 3 - - 0.0
25/12:50pm 14.0 12.4 6.4 60 3.7 E 4 6 2 3 - - 0.0
25/12:40pm 14.1 12.1 6.2 59 3.8 E 6 7 3 4 - - 0.0
25/12:30pm 14.2 12.4 7.1 62 3.5 ENE 6 9 3 5 - - 0.0
25/12:20pm 14.4 12.2 6.0 57 4.1 E 7 9 4 5 - - 0.0
25/12:00pm 14.0 11.7 4.8 54 4.3 E 6 7 3 4 - - 0.0
25/10:00am 13.0 10.7 5.0 58 3.8 - 6 9 3 5 - - 14.0
25/09:50am 12.9 11.0 5.1 59 3.7 E 4 6 2 3 - - 14.0
25/09:40am 12.4 9.9 3.9 56 3.9 E 6 7 3 4 - - 14.0
25/09:10am 11.4 9.0 4.3 61 3.2 E 6 7 3 4 - - 14.0
25/09:00am 11.3 9.0 4.8 64 3.0 E 6 7 3 4 - - 14.0
25/08:50am 11.2 8.7 4.9 65 2.9 E 7 11 4 6 - - 14.0
25/08:40am 11.3 8.9 4.1 61 3.3 E 6 7 3 4 - - 14.0
25/08:30am 10.9 9.2 5.7 70 2.4 ESE 4 6 2 3 - - 14.0
25/08:20am 10.6 8.3 4.7 67 2.7 ENE 6 9 3 5 - - 14.0
25/08:10am 10.5 8.0 4.7 67 2.7 ENE 7 9 4 5 - - 14.0
25/08:00am 10.5 8.1 4.4 66 2.8 ENE 6 9 3 5 - - 14.0
25/07:50am 10.3 8.0 4.7 68 2.6 NNE 6 7 3 4 - - 14.0
25/07:40am 10.0 7.9 3.9 66 2.7 E 4 4 2 2 - - 14.0
25/07:30am 9.7 7.3 4.2 68 2.5 E 6 7 3 4 - - 14.0
25/07:20am 9.7 7.6 4.0 67 2.5 E 4 6 2 3 - - 14.0
25/07:10am 9.6 7.6 4.2 69 2.4 NNW 4 6 2 3 - - 14.0
25/06:50am 9.1 7.4 4.2 71 2.2 NW 2 4 1 2 - - 14.0
25/06:40am 9.0 7.4 4.3 72 2.1 NNW 2 4 1 2 - - 14.0
25/06:30am 8.8 6.8 4.3 73 2.0 SSW 4 6 2 3 - - 14.0
25/06:20am 8.8 6.7 4.0 72 2.1 SSE 4 4 2 2 - - 14.0
25/06:10am 8.9 7.0 4.8 75 1.9 E 4 4 2 2 - - 14.0
25/05:50am 8.7 6.6 3.8 71 2.2 ESE 4 7 2 4 - - 14.0
25/05:40am 8.8 7.0 5.4 79 1.6 E 4 6 2 3 - - 14.0
25/05:30am 8.8 6.6 3.6 70 2.3 E 4 6 2 3 - - 14.0
25/05:20am 8.7 6.7 4.2 73 2.0 ESE 4 9 2 5 - - 14.0
25/05:10am 8.8 7.0 3.4 69 2.4 NE 2 4 1 2 - - 14.0
25/05:00am 8.7 6.4 3.0 67 2.5 WNW 4 7 2 4 - - 14.0
25/04:50am 8.7 6.6 4.1 73 2.0 SW 4 6 2 3 - - 14.0
25/04:40am 8.7 6.8 2.9 67 2.5 SE 2 4 1 2 - - 14.0
25/04:30am 8.7 7.1 4.6 75 1.8 W 2 4 1 2 - - 14.0
25/04:20am 8.9 7.7 4.5 74 2.0 CALM 0 2 0 1 - - 14.0
25/04:10am 8.9 7.0 3.0 66 2.6 SSW 2 4 1 2 - - 14.0
25/04:00am 8.8 6.3 3.8 71 2.2 E 6 11 3 6 - - 14.0
25/03:50am 8.9 7.3 4.5 74 2.0 NE 2 2 1 1 - - 14.0
25/03:40am 9.0 7.0 4.6 74 2.0 ESE 4 6 2 3 - - 14.0
25/03:30am 9.0 7.8 4.4 73 2.1 CALM 0 2 0 1 - - 14.0
25/03:20am 9.0 6.9 3.7 69 2.3 SW 4 6 2 3 - - 14.0
25/03:10am 9.1 6.9 3.5 68 2.5 E 4 6 2 3 - - 14.0
25/02:50am 9.2 6.4 3.1 65 2.7 NE 7 13 4 7 - - 14.0
25/02:40am 9.2 6.7 3.7 68 2.4 NNE 6 7 3 4 - - 14.0
25/02:30am 9.2 6.7 3.7 68 2.4 NE 6 7 3 4 - - 14.0
25/02:20am 9.2 7.1 4.0 70 2.3 ENE 4 7 2 4 - - 14.0
25/02:10am 9.4 6.9 3.9 68 2.4 N 6 9 3 5 - - 14.0
25/02:00am 9.3 6.8 3.7 68 2.5 NE 6 11 3 6 - - 14.0
25/01:40am 9.5 6.9 4.1 69 2.4 NE 7 11 4 6 - - 14.0
25/01:30am 9.6 6.7 4.7 71 2.2 NE 9 13 5 7 - - 14.0
25/01:20am 9.7 6.9 5.0 72 2.1 NNE 9 11 5 6 - - 14.0
25/01:10am 9.7 6.9 5.3 74 2.0 NE 9 13 5 7 - - 14.0
25/01:00am 9.7 7.4 5.8 77 1.8 NE 7 11 4 6 - - 14.0
25/12:50am 9.7 7.5 6.4 80 1.6 NE 7 9 4 5 - - 14.0
25/12:40am 9.7 7.8 6.9 83 1.3 NE 6 9 3 5 - - 14.0
25/12:30am 9.8 7.8 6.9 82 1.4 N 7 9 4 5 - - 14.0
25/12:20am 9.8 7.4 6.9 82 1.4 NE 9 13 5 7 - - 14.0
25/12:10am 9.9 7.9 6.9 81 1.4 NE 7 9 4 5 - - 14.0
25/12:00am 9.9 8.0 6.6 80 1.6 ENE 6 7 3 4 - - 14.0
 
Date/Time
EDT
Temp
°C
App
Temp
°C
Dew
Point
°C
Rel
Hum
%
Delta-T
°C
Wind Press
QNH
hPa
Press
MSL
hPa
Rain since
9am
mm
Dir  Spd
km/h
Gust
km/h
Spd
kts
Gust
kts
24/11:50pm 9.9 8.4 7.0 82 1.4 N 4 7 2 4 - - 14.0
24/11:40pm 9.9 8.1 7.1 83 1.3 N 6 9 3 5 - - 14.0
24/11:10pm 10.0 8.1 7.4 84 1.3 NNE 7 11 4 6 - - 14.0
24/11:00pm 10.0 8.1 7.4 84 1.3 NE 7 11 4 6 - - 14.0
24/09:40pm 8.9 7.7 8.2 95 0.3 WSW 4 6 2 3 - - 14.0
24/09:30pm 8.9 8.1 8.3 96 0.3 W 2 4 1 2 - - 14.0
24/07:50pm 10.4 8.6 7.2 80 1.5 NE 6 9 3 5 - - 12.4
24/06:30pm 11.4 9.5 7.6 77 1.9 ENE 7 11 4 6 - - 12.4
24/06:20pm 11.7 9.5 7.9 77 1.9 NE 9 15 5 8 - - 12.4
24/06:10pm 12.0 10.2 8.0 76 2.0 NE 7 11 4 6 - - 12.4
24/06:00pm 12.3 10.6 8.4 77 2.0 NNE 7 11 4 6 - - 12.4
24/05:50pm 12.5 11.7 9.7 83 1.4 NE 4 6 2 3 - - 12.4
24/04:50pm 13.5 12.3 10.3 81 1.7 N 7 13 4 7 - - 12.4
24/03:00pm 16.7 16.6 14.9 89 1.1 ENE 9 15 5 8 - - 11.6
24/02:20pm 17.9 20.3 17.1 95 0.5 CALM 0 2 0 1 - - 11.2
24/01:50pm 17.7 19.8 17.1 96 0.4 SSE 2 2 1 1 - - 10.6
24/01:40pm 17.4 19.3 16.8 96 0.4 W 2 2 1 1 - - 10.6
24/01:30pm 17.3 19.2 16.8 97 0.3 WSW 2 2 1 1 - - 10.6
24/01:20pm 17.3 19.2 16.8 97 0.3 E 2 4 1 2 - - 10.0
24/01:10pm 17.3 19.2 16.8 97 0.3 E 2 4 1 2 - - 9.6
24/01:00pm 17.2 19.1 16.7 97 0.3 E 2 2 1 1 - - 8.8
24/12:50pm 17.2 19.4 16.6 96 0.4 CALM 0 2 0 1 - - 8.0
24/12:40pm 17.2 19.1 16.6 96 0.4 SSW 2 2 1 1 - - 7.4
24/12:30pm 17.2 19.1 16.7 97 0.3 WNW 2 4 1 2 - - 6.6
24/12:10pm 17.5 19.5 16.9 96 0.4 SW 2 2 1 1 - - 5.4
24/12:00pm 17.6 19.6 17.0 96 0.4 W 2 4 1 2 - - 4.8
24/11:50am 17.8 19.8 17.0 95 0.5 W 2 4 1 2 - - 4.0
24/11:30am 18.3 20.3 17.0 92 0.8 E 2 4 1 2 - - 0.4
24/11:20am 18.7 20.8 17.2 91 0.9 E 2 2 1 1 - - 0.2
24/11:10am 18.9 21.0 17.1 89 1.1 E 2 4 1 2 - - 0.0
24/11:00am 18.9 20.4 15.7 82 1.9 WNW 2 4 1 2 - - 0.0
24/10:50am 18.7 20.4 16.1 85 1.6 WNW 2 4 1 2 - - 0.0
24/10:40am 18.6 20.4 16.4 87 1.3 WNW 2 4 1 2 - - 0.0
24/10:30am 18.7 20.5 16.5 87 1.3 WNW 2 2 1 1 - - 0.0
24/10:20am 18.7 20.0 16.1 85 1.6 W 4 6 2 3 - - 0.0
24/10:10am 19.1 20.1 15.4 79 2.2 W 4 4 2 2 - - 0.0
24/10:00am 19.0 20.4 15.3 79 2.2 S 2 6 1 3 - - 18.8
24/09:50am 18.9 20.7 16.4 85 1.5 S 2 4 1 2 - - 18.8
24/09:40am 18.9 20.6 16.3 85 1.6 W 2 4 1 2 - - 18.8
24/09:30am 19.2 20.7 16.6 85 1.6 ESE 4 4 2 2 - - 18.8
24/09:10am 18.9 19.8 15.0 78 2.3 SSE 4 4 2 2 - - 18.8
24/09:00am 18.8 19.7 15.1 79 2.2 S 4 6 2 3 - - 18.8
24/08:50am 18.8 19.6 14.9 78 2.3 SSW 4 6 2 3 - - 18.8
24/08:20am 19.3 19.8 15.0 76 2.5 S 6 6 3 3 - - 18.8
24/08:10am 19.6 20.0 14.7 73 2.9 S 6 7 3 4 - - 18.8
24/08:00am 19.5 20.3 14.9 75 2.7 S 4 6 2 3 - - 18.8
24/07:50am 19.2 19.4 14.3 73 2.9 S 6 6 3 3 - - 18.8
24/07:40am 19.0 19.7 14.5 75 2.6 S 4 4 2 2 - - 18.8
24/07:30am 18.8 19.3 14.1 74 2.7 SSE 4 6 2 3 - - 18.8
24/07:20am 18.6 18.7 13.9 74 2.7 S 6 7 3 4 - - 18.8
24/07:10am 17.9 18.0 13.8 77 2.4 S 6 7 3 4 - - 18.8
24/07:00am 17.5 17.8 14.4 82 1.8 S 6 7 3 4 - - 18.8
24/06:50am 17.4 17.7 14.4 82 1.7 SSE 6 7 3 4 - - 18.8
24/06:40am 17.5 18.2 14.4 82 1.8 SE 4 6 2 3 - - 18.8
24/06:30am 17.4 17.9 14.1 81 1.9 S 4 7 2 4 - - 18.8
24/06:20am 17.2 17.9 14.5 84 1.6 SSE 4 4 2 2 - - 18.8
24/06:10am 17.3 17.9 14.2 82 1.8 S 4 6 2 3 - - 18.8
24/06:00am 17.4 18.5 14.7 84 1.6 E 2 6 1 3 - - 18.8
24/05:50am 18.1 18.9 14.8 81 1.9 SE 4 7 2 4 - - 18.8
24/05:40am 18.4 18.5 13.9 75 2.6 SW 6 7 3 4 - - 18.8
24/05:30am 18.3 18.2 14.0 76 2.5 SW 7 9 4 5 - - 18.8
24/05:20am 17.8 18.0 14.1 79 2.1 SSW 6 7 3 4 - - 18.8
24/05:10am 17.5 17.8 14.6 83 1.7 SSW 6 7 3 4 - - 18.8
24/05:00am 17.3 17.7 14.7 85 1.5 S 6 7 3 4 - - 18.8
24/04:50am 17.3 17.8 14.9 86 1.4 S 6 7 3 4 - - 18.8
24/04:40am 17.4 17.9 15.0 86 1.4 SSW 6 7 3 4 - - 18.8
24/04:30am 17.1 17.4 14.6 85 1.5 WSW 6 7 3 4 - - 18.8
24/04:20am 16.6 17.5 15.0 90 0.9 S 4 7 2 4 - - 18.8
24/04:10am 16.7 17.7 15.3 91 0.8 SSE 4 4 2 2 - - 18.8
24/04:00am 16.8 17.7 15.1 90 1.0 SW 4 6 2 3 - - 18.8
24/03:50am 16.7 17.2 15.1 90 0.9 SW 6 9 3 5 - - 18.8
24/03:40am 16.9 17.3 15.2 90 1.0 SSW 7 9 4 5 - - 18.8
24/03:30am 17.2 17.5 15.0 87 1.3 SSW 7 11 4 6 - - 18.8
24/03:20am 16.5 17.0 15.0 91 0.9 S 6 7 3 4 - - 18.8
24/03:10am 16.3 16.9 15.3 94 0.6 SSE 6 7 3 4 - - 18.8
24/03:00am 16.3 16.9 15.3 94 0.6 E 6 7 3 4 - - 18.8
24/02:50am 16.2 16.8 15.3 94 0.5 E 6 7 3 4 - - 18.8
24/02:40am 16.1 17.1 15.4 96 0.4 SSE 4 6 2 3 - - 18.8
24/02:30am 16.0 16.6 15.4 96 0.4 E 6 7 3 4 - - 18.8
24/02:20am 16.1 16.7 15.4 96 0.4 ESE 6 7 3 4 - - 18.8
24/02:10am 16.1 16.7 15.4 96 0.4 E 6 7 3 4 - - 18.8
24/02:00am 16.1 17.1 15.4 96 0.4 SE 4 7 2 4 - - 18.8
24/01:50am 16.1 16.8 15.5 96 0.4 ESE 6 7 3 4 - - 18.8
24/01:40am 15.9 16.6 15.5 97 0.2 E 6 7 3 4 - - 18.8
24/01:00am 15.9 16.6 15.5 97 0.2 S 6 7 3 4 - - 18.6
24/12:50am 15.8 16.9 15.5 98 0.2 S 4 6 2 3 - - 18.6
24/12:40am 15.8 16.5 15.5 98 0.2 S 6 6 3 3 - - 18.6
24/12:30am 15.8 16.9 15.5 98 0.2 S 4 6 2 3 - - 18.6
 
Date/Time
EDT
Temp
°C
App
Temp
°C
Dew
Point
°C
Rel
Hum
%
Delta-T
°C
Wind Press
QNH
hPa
Press
MSL
hPa
Rain since
9am
mm
Dir  Spd
km/h
Gust
km/h
Spd
kts
Gust
kts
23/11:20pm 15.6 17.0 15.3 98 0.2 SE 2 2 1 1 - - 18.6
23/11:10pm 15.7 17.1 15.4 98 0.2 E 2 4 1 2 - - 18.4
23/10:50pm 15.8 16.9 15.5 98 0.2 S 4 6 2 3 - - 18.4
23/10:40pm 15.8 16.9 15.5 98 0.2 S 4 7 2 4 - - 18.4
23/10:30pm 15.8 17.2 15.5 98 0.2 E 2 4 1 2 - - 18.4
23/10:20pm 15.7 16.8 15.5 99 0.1 S 4 7 2 4 - - 18.4
23/10:00pm 15.4 16.7 15.2 99 0.1 NE 2 2 1 1 - - 18.4
23/09:20pm 15.5 16.8 15.2 98 0.2 S 2 6 1 3 - - 18.4
23/09:10pm 15.5 16.4 15.2 98 0.2 SW 4 4 2 2 - - 18.4
23/08:00pm 15.7 16.7 15.4 98 0.2 WNW 4 6 2 3 - - 18.4
23/07:40pm 15.7 17.5 15.4 98 0.2 CALM 0 2 0 1 - - 18.4
23/07:30pm 15.8 17.2 15.4 97 0.2 NNW 2 4 1 2 - - 18.4
23/05:50pm 15.9 16.9 15.3 96 0.4 W 4 6 2 3 - - 17.4
23/05:40pm 15.9 16.8 15.2 96 0.4 WNW 4 6 2 3 - - 16.6
23/04:40pm 17.3 18.7 16.3 94 0.6 E 4 4 2 2 - - 12.8
23/04:10pm 17.4 18.8 16.5 94 0.5 E 4 6 2 3 - - 12.8
23/04:00pm 17.4 18.8 16.5 94 0.5 E 4 4 2 2 - - 12.8
23/10:30am 23.7 24.7 15.3 59 5.1 W 4 7 2 4 - - 0.0
23/08:20am 16.3 16.6 13.5 83 1.6 S 4 6 2 3 - - 0.0
23/08:00am 15.1 15.3 13.1 88 1.1 SSW 4 6 2 3 - - 0.0
23/07:50am 14.7 14.5 12.9 89 1.0 S 6 7 3 4 - - 0.0
23/07:40am 14.5 14.2 12.8 89 0.9 S 6 7 3 4 - - 0.0
23/07:30am 14.4 14.5 12.8 90 0.9 S 4 6 2 3 - - 0.0
23/07:20am 14.2 14.3 12.7 91 0.8 S 4 7 2 4 - - 0.0
23/07:10am 13.9 14.0 12.8 93 0.6 S 4 6 2 3 - - 0.0
23/07:00am 13.8 13.5 12.6 92 0.7 S 6 6 3 3 - - 0.0
23/06:50am 13.7 13.4 12.6 93 0.6 S 6 6 3 3 - - 0.0
23/06:40am 13.6 13.7 12.7 94 0.5 SSW 4 7 2 4 - - 0.0
23/06:30am 13.5 13.9 12.6 94 0.5 SSW 2 4 1 2 - - 0.0
23/06:10am 13.7 13.4 12.7 94 0.6 S 6 6 3 3 - - 0.0
23/06:00am 13.7 13.8 12.7 94 0.6 S 4 6 2 3 - - 0.0
23/05:50am 13.8 13.9 12.7 93 0.6 S 4 6 2 3 - - 0.0
23/05:40am 13.9 14.0 12.7 92 0.7 SW 4 6 2 3 - - 0.0
23/05:30am 14.1 14.2 12.8 92 0.7 SW 4 6 2 3 - - 0.0
23/05:20am 14.1 14.3 12.9 92 0.7 SW 4 6 2 3 - - 0.0
23/05:10am 14.3 14.5 13.0 92 0.7 SE 4 7 2 4 - - 0.0
23/05:00am 14.4 15.0 13.0 91 0.8 SSE 2 4 1 2 - - 0.0
23/04:50am 14.5 14.7 13.0 91 0.8 SW 4 7 2 4 - - 0.0
23/04:40am 14.4 14.2 13.0 91 0.8 SSW 6 6 3 3 - - 0.0
23/04:30am 14.3 14.5 12.9 91 0.8 SSW 4 6 2 3 - - 0.0
23/04:20am 14.1 14.2 12.8 92 0.7 S 4 6 2 3 - - 0.0
23/04:10am 14.0 14.5 12.7 92 0.7 S 2 6 1 3 - - 0.0
23/03:50am 13.9 14.3 12.6 92 0.7 WSW 2 4 1 2 - - 0.0
23/03:40am 13.9 14.3 12.6 92 0.7 SSW 2 4 1 2 - - 0.0
23/03:10am 13.8 14.2 12.6 92 0.7 W 2 4 1 2 - - 0.0
23/02:40am 14.2 14.7 12.7 91 0.8 E 2 4 1 2 - - 0.0
23/01:40am 14.2 15.0 12.6 90 0.9 CALM 0 2 0 1 - - 0.0

Other formats

Comma delimited format used in spreadsheet applications
http://www.bom.gov.au/fwo/IDN60801/IDN60801.99756.axf

JavaScript Object Notation format (JSON) in row-major order
http://www.bom.gov.au/fwo/IDN60801/IDN60801.99756.json

Data quality

Most of these data are generated automatically and are frequently updated. Quality checks on data are not normally performed. It is possible for incorrect values to appear. Refer to information at About Latest Weather Observations and please check the disclaimer before using these data.